CYSBCYWA

Guest
Details From CYSB - SUDBURY
To CYWA - PETAWAWA
Flight Number -
Tags generated
Created
Modified
Stats Distance 150 nm / 278 km
Max Altitude 19,600 ft / 5,974 m
Waypoints 3
Social Downloads 0
Likes 0
Share VATSIM

Download

Looking for another format? Having issues loading an existing format? Contact us
Advertisement - Login to hide

Notes

Basic altitude profile: - Ascent Rate: 2500ft/min - Ascent Speed: 250kts - Cruise Altitude: 35000ft - Cruise Speed: 420kts - Descent Rate: 1500ft/min - Descent Speed: 250kts Options: - Use NATs: yes - Use PACOTS: yes - Use low airways: yes - Use high airways: yes

Route

CYSB YYB CYWA

ID Type Via Altitude Latitude Longitude Leg Dist Tot Dist Heading (true) Name
O CYSB APT - 0 ft / 0 m 46.62632˚ -80.79819˚ - 0 nm - SUDBURY
YYB VOR - 19,600 ft / 5,974 m 46.36392˚ -79.43642˚ 58 nm 58 nm 105° / 106° NORTH BAY VOR-DME
O CYWA APT - 0 ft / 0 m 45.95194˚ -77.31903˚ 91 nm 149 nm 105° / 106° PETAWAWA

Altitude Profile

Advertisement - Login to hide

CYSB

Details ICAO CYSB (YSB)
Name SUDBURY
Region Canada
Timezone America/Toronto (UTC-5.0)
Stats Elevation 1,141 ft / 348 m (AMSL)
Location 46.626320° -80.798194°
Runways 2
Magnetic Variation 10.305° W

METAR

CYSB 150822Z 14007KT 15SM SCT052 M19/M22 A2982 RMK SC3 SLP136

Decode

TAF

TAF CYSB 150744Z 1508/1520 VRB03KT P6SM SCT020 BKN050 TEMPO 1508/1516 5SM -SHSN BKN020 OVC050 BECMG 1511/1513 12006KT FM151600 11008KT 6SM -SN OVC020 TEMPO 1516/1518 2SM -SN OVC010 FM151800 10008KT 11/2SM -SN VV008 RMK NXT FCST BY 151400Z

Decode

Departure Runways

ID Width Length Bearing (true) Bearing (mag) Surface Threshold Offset Overrun Length
04 200 ft / 61 m 6,574 ft / 2,004 m 28.46° 38.76° Asphalt 0 ft / 0 m 1,000 ft / 305 m
12 150 ft / 46 m 5,009 ft / 1,527 m 106.45° 116.75° Asphalt 0 ft / 0 m 600 ft / 183 m
22 200 ft / 61 m 6,574 ft / 2,004 m 208.47° 218.77° Asphalt 0 ft / 0 m 1,000 ft / 305 m
30 150 ft / 46 m 5,009 ft / 1,527 m 286.47° 296.77° Asphalt 0 ft / 0 m 400 ft / 122 m

CYWA

Details ICAO CYWA (YWA)
Name PETAWAWA
Region Canada
Timezone America/Toronto (UTC-5.0)
Stats Elevation 427 ft / 130 m (AMSL)
Location 45.951943° -77.319029°
Runways 1
Magnetic Variation 12.459° W

METAR

CYWA 150800Z AUTO 25003KT 190V260 9SM CLR M26/M30 A2997 RMK SLP166

Decode

TAF

TAF TAF CYWA 150533Z 1506/1518 VRB03KT P6SM SKC BECMG 1507/1509 OVC030 FM151500 VRB03KT P6SM OVC030 TEMPO 1515/1518 P6SM -SN RMK FCST BASED ON AUTO OBS. NXT FCST BY 151200Z

Decode

Destination Runways

ID Width Length Bearing (true) Bearing (mag) Surface Threshold Offset Overrun Length
17 75 ft / 23 m 3,835 ft / 1,169 m 147.78° 160.24° Grass 0 ft / 0 m 0 ft / 0 m
35 75 ft / 23 m 3,835 ft / 1,169 m 327.79° 340.25° Grass 0 ft / 0 m 0 ft / 0 m